Time;durP1;ratioP1;P1;durP2;ratioP2;P2;SDS_P1;SDS_P2;PMS_P1;PMS_P2;Temp;Humidity;BMP_temperature;BMP_pressure;BME280_temperature;BME280_humidity;BME280_pressure;Samples;Min_cycle;Max_cycle;Signal;HPM_P1;HPM_P2
2022/08/27 00:00:14;;;;;;;;;;;18.80;99.90;;;;;;5093404;28;19908;-67
2022/08/27 00:02:40;;;;;;;;;;;18.80;99.90;;;;;;5093639;28;19916;-67
2022/08/27 00:05:06;;;;;;;;;;;18.80;99.90;;;;;;5093260;28;19947;-67
2022/08/27 00:07:31;;;;;;;;;;;18.80;99.90;;;;;;5093284;28;19908;-67
2022/08/27 00:09:57;;;;;;;;;;;18.70;99.90;;;;;;5093161;28;19912;-67
2022/08/27 00:12:22;;;;;;;;;;;18.70;99.90;;;;;;5093243;28;19908;-67
2022/08/27 00:14:48;;;;;;;;;;;18.70;99.90;;;;;;5093177;28;19907;-67
2022/08/27 00:17:13;;;;;;;;;;;18.70;99.90;;;;;;5093062;28;19979;-67
2022/08/27 00:19:39;;;;;;;;;;;18.70;99.90;;;;;;5093456;28;20414;-67
2022/08/27 00:22:06;;;;;;;;;;;18.60;99.90;;;;;;5093108;28;19924;-68
2022/08/27 00:24:31;;;;;;;;;;;18.50;99.90;;;;;;5094974;28;19986;-67
2022/08/27 00:26:57;;;;;;;;;;;18.50;99.90;;;;;;5078647;28;20045;-67
2022/08/27 00:29:25;;;;;;;;;;;18.50;99.90;;;;;;5096724;28;19908;-67
2022/08/27 00:31:51;;;;;;;;;;;18.50;99.90;;;;;;5096984;28;19912;-67
2022/08/27 00:34:16;;;;;;;;;;;18.50;99.90;;;;;;5078486;28;19916;-67
2022/08/27 00:36:42;;;;;;;;;;;18.40;99.90;;;;;;5096769;28;19912;-67
2022/08/27 00:39:08;;;;;;;;;;;18.40;99.90;;;;;;5096822;28;19908;-68
2022/08/27 00:41:33;;;;;;;;;;;18.40;99.90;;;;;;5096757;28;19914;-68
2022/08/27 00:44:00;;;;;;;;;;;18.40;99.90;;;;;;5096732;28;20415;-67
2022/08/27 00:46:29;;;;;;;;;;;18.40;99.90;;;;;;5096657;28;20069;-67
2022/08/27 00:48:57;;;;;;;;;;;18.40;99.90;;;;;;5096605;28;19939;-67
2022/08/27 00:51:23;;;;;;;;;;;18.30;99.90;;;;;;5096548;28;19908;-67
2022/08/27 00:53:50;;;;;;;;;;;18.40;99.90;;;;;;5096537;28;19917;-67
2022/08/27 00:56:19;;;;;;;;;;;18.30;99.90;;;;;;5096392;28;19908;-68
2022/08/27 00:58:46;;;;;;;;;;;18.30;99.90;;;;;;5096468;28;19914;-67
2022/08/27 01:01:13;;;;;;;;;;;18.30;99.90;;;;;;5096414;28;19908;-67
2022/08/27 01:03:40;;;;;;;;;;;18.30;99.90;;;;;;5096061;28;19908;-67
2022/08/27 01:06:08;;;;;;;;;;;18.30;99.90;;;;;;5096024;28;19908;-67
2022/08/27 01:08:36;;;;;;;;;;;18.30;99.90;;;;;;5096230;28;19918;-67
2022/08/27 01:11:03;;;;;;;;;;;18.30;99.90;;;;;;5078202;28;19908;-68
2022/08/27 01:13:30;;;;;;;;;;;18.30;99.90;;;;;;5096124;28;19908;-67
2022/08/27 01:15:57;;;;;;;;;;;18.20;99.90;;;;;;5096081;28;19909;-67
2022/08/27 01:18:25;;;;;;;;;;;18.20;99.90;;;;;;5095545;28;20007;-67
2022/08/27 01:20:56;;;;;;;;;;;18.20;99.90;;;;;;5095765;28;19912;-67
2022/08/27 01:23:41;;;;;;;;;;;18.20;99.90;;;;;;5095970;28;20359;-67
2022/08/27 01:26:07;;;;;;;;;;;18.20;99.90;;;;;;5095439;28;20324;-67
2022/08/27 01:28:34;;;;;;;;;;;18.10;99.90;;;;;;5095561;28;19914;-67
2022/08/27 01:31:00;;;;;;;;;;;18.10;99.90;;;;;;5095816;28;20370;-67
2022/08/27 01:33:26;;;;;;;;;;;18.10;99.90;;;;;;5095752;28;20375;-67
2022/08/27 01:35:51;;;;;;;;;;;18.10;99.90;;;;;;5095712;28;19954;-67
2022/08/27 01:38:17;;;;;;;;;;;18.10;99.90;;;;;;5095313;28;19912;-67
2022/08/27 01:40:43;;;;;;;;;;;18.00;99.90;;;;;;5095656;28;19993;-67
2022/08/27 01:43:08;;;;;;;;;;;18.10;99.90;;;;;;5095591;28;20474;-67
2022/08/27 01:45:35;;;;;;;;;;;18.00;99.90;;;;;;5095247;28;19969;-67
2022/08/27 01:48:02;;;;;;;;;;;18.00;99.90;;;;;;5095216;28;19908;-68
2022/08/27 01:50:30;;;;;;;;;;;18.00;99.90;;;;;;5095439;28;20282;-67
2022/08/27 01:52:56;;;;;;;;;;;18.00;99.90;;;;;;5095065;28;19915;-67
2022/08/27 01:55:24;;;;;;;;;;;18.00;99.90;;;;;;5095040;28;19908;-67
2022/08/27 01:57:51;;;;;;;;;;;18.00;99.90;;;;;;5095196;28;19912;-67
2022/08/27 02:00:19;;;;;;;;;;;18.10;99.90;;;;;;5094969;28;19908;-67
2022/08/27 02:02:45;;;;;;;;;;;18.10;99.90;;;;;;5094911;28;19908;-67
2022/08/27 02:05:12;;;;;;;;;;;18.00;99.90;;;;;;5094853;28;19908;-67
2022/08/27 02:07:38;;;;;;;;;;;18.00;99.90;;;;;;5094842;28;19943;-67
2022/08/27 02:10:05;;;;;;;;;;;18.00;99.90;;;;;;5095074;28;20308;-68
2022/08/27 02:12:31;;;;;;;;;;;18.00;99.90;;;;;;5094991;28;19953;-68
2022/08/27 02:14:56;;;;;;;;;;;18.10;99.90;;;;;;5094716;28;20007;-67
2022/08/27 02:17:22;;;;;;;;;;;18.10;99.90;;;;;;5094476;28;19920;-67
2022/08/27 02:19:47;;;;;;;;;;;18.00;99.90;;;;;;5094615;28;20473;-67
2022/08/27 02:22:13;;;;;;;;;;;18.00;99.90;;;;;;5094814;28;19909;-67
2022/08/27 02:24:40;;;;;;;;;;;18.00;99.90;;;;;;5094783;28;19908;-67
2022/08/27 02:27:06;;;;;;;;;;;18.10;99.90;;;;;;5094764;28;19908;-67
2022/08/27 02:29:33;;;;;;;;;;;18.00;99.90;;;;;;5094709;28;19931;-67
2022/08/27 02:32:00;;;;;;;;;;;18.10;99.90;;;;;;5094366;28;19955;-67
2022/08/27 02:34:26;;;;;;;;;;;18.10;99.90;;;;;;5094606;28;20278;-67
2022/08/27 02:36:52;;;;;;;;;;;18.00;99.90;;;;;;5094236;28;19915;-67
2022/08/27 02:39:18;;;;;;;;;;;18.00;99.90;;;;;;5094576;28;19908;-68
2022/08/27 02:41:43;;;;;;;;;;;18.00;99.90;;;;;;5094293;28;19912;-67
2022/08/27 02:44:10;;;;;;;;;;;18.00;99.90;;;;;;5094218;28;20411;-67
2022/08/27 02:46:36;;;;;;;;;;;18.00;99.90;;;;;;5094015;28;19915;-68
2022/08/27 02:49:01;;;;;;;;;;;18.00;99.90;;;;;;5094095;28;20298;-67
2022/08/27 02:51:27;;;;;;;;;;;18.00;99.90;;;;;;5094097;28;19912;-67
2022/08/27 02:53:53;;;;;;;;;;;18.00;99.90;;;;;;5094333;28;19908;-67
2022/08/27 02:56:18;;;;;;;;;;;18.10;99.90;;;;;;5094160;28;19915;-67
2022/08/27 02:58:44;;;;;;;;;;;18.00;99.90;;;;;;5094244;28;19912;-67
2022/08/27 03:01:10;;;;;;;;;;;18.00;99.90;;;;;;5094227;28;20046;-67
2022/08/27 03:03:36;;;;;;;;;;;18.00;99.90;;;;;;5075799;28;19943;-67
2022/08/27 03:06:01;;;;;;;;;;;18.00;99.90;;;;;;5093892;28;19912;-67
2022/08/27 03:08:27;;;;;;;;;;;18.00;99.90;;;;;;5094096;28;19908;-67
2022/08/27 03:10:53;;;;;;;;;;;18.00;99.90;;;;;;5094066;28;20392;-67
2022/08/27 03:13:19;;;;;;;;;;;17.90;99.90;;;;;;5093715;28;20002;-67
2022/08/27 03:15:45;;;;;;;;;;;18.00;99.90;;;;;;5094024;28;19966;-68
2022/08/27 03:18:17;;;;;;;;;;;18.00;99.90;;;;;;5093536;28;19986;-67
2022/08/27 03:20:44;;;;;;;;;;;18.00;99.90;;;;;;5077086;28;19995;-68
2022/08/27 03:23:10;;;;;;;;;;;18.10;99.90;;;;;;5075624;28;19931;-68
2022/08/27 03:25:36;;;;;;;;;;;18.00;99.90;;;;;;5093683;28;19959;-68
2022/08/27 03:28:02;;;;;;;;;;;17.90;99.90;;;;;;5093660;28;19950;-68
2022/08/27 03:30:27;;;;;;;;;;;17.90;99.90;;;;;;5093978;28;19908;-67
2022/08/27 03:32:53;;;;;;;;;;;17.80;99.90;;;;;;5093691;28;19995;-67
2022/08/27 03:35:19;;;;;;;;;;;17.80;99.90;;;;;;5093683;28;19908;-67
2022/08/27 03:37:45;;;;;;;;;;;17.70;99.90;;;;;;5093607;28;19916;-67
2022/08/27 03:40:11;;;;;;;;;;;17.50;99.90;;;;;;5093912;28;19916;-67
2022/08/27 03:42:37;;;;;;;;;;;17.50;99.90;;;;;;5093962;28;20002;-67
2022/08/27 03:45:03;;;;;;;;;;;17.40;99.90;;;;;;5094011;28;19908;-67
2022/08/27 03:47:29;;;;;;;;;;;17.40;99.90;;;;;;5093580;28;20002;-68
2022/08/27 03:49:55;;;;;;;;;;;17.40;99.90;;;;;;5093703;28;19946;-67
2022/08/27 03:52:21;;;;;;;;;;;17.40;99.90;;;;;;5093692;28;19908;-67
2022/08/27 03:54:46;;;;;;;;;;;17.40;99.90;;;;;;5093649;28;20319;-67
2022/08/27 03:57:12;;;;;;;;;;;17.40;99.90;;;;;;5093584;28;19999;-68
2022/08/27 03:59:37;;;;;;;;;;;17.40;99.90;;;;;;5095183;28;19908;-67
2022/08/27 04:02:03;;;;;;;;;;;17.40;99.90;;;;;;5097309;28;19912;-67
2022/08/27 04:04:29;;;;;;;;;;;17.40;99.90;;;;;;5097213;28;19908;-67
2022/08/27 04:06:56;;;;;;;;;;;17.40;99.90;;;;;;5097450;28;19908;-67
2022/08/27 04:09:21;;;;;;;;;;;17.30;99.90;;;;;;5097399;28;20340;-67
2022/08/27 04:11:47;;;;;;;;;;;17.30;99.90;;;;;;5097130;28;19908;-67
2022/08/27 04:14:12;;;;;;;;;;;17.30;99.90;;;;;;5097055;28;19908;-67
2022/08/27 04:16:39;;;;;;;;;;;17.30;99.90;;;;;;5078566;28;19927;-67
2022/08/27 04:19:04;;;;;;;;;;;17.30;99.90;;;;;;5097250;28;19919;-67
2022/08/27 04:21:31;;;;;;;;;;;17.30;99.90;;;;;;5096927;28;19908;-68
2022/08/27 04:23:57;;;;;;;;;;;17.20;99.90;;;;;;5097122;28;19916;-67
2022/08/27 04:26:23;;;;;;;;;;;17.30;99.90;;;;;;5097071;28;19908;-67
2022/08/27 04:28:48;;;;;;;;;;;17.30;99.90;;;;;;5096761;28;20340;-68
2022/08/27 04:31:14;;;;;;;;;;;17.30;99.90;;;;;;5097030;28;19961;-67
2022/08/27 04:33:39;;;;;;;;;;;17.30;99.90;;;;;;5096938;28;19908;-67
2022/08/27 04:36:06;;;;;;;;;;;17.30;99.90;;;;;;5096902;28;19973;-67
2022/08/27 04:38:32;;;;;;;;;;;17.20;99.90;;;;;;5096540;28;19951;-67
2022/08/27 04:41:32;;;;;;;;;;;17.20;99.90;;;;;;5096787;28;19908;-67
2022/08/27 04:43:43;;;;;;;;;;;17.30;99.90;;;;;;5096327;28;20316;-67
2022/08/27 04:46:08;;;;;;;;;;;17.20;99.90;;;;;;5096686;28;19908;-67
2022/08/27 04:48:34;;;;;;;;;;;17.10;99.90;;;;;;5096649;28;19912;-67
2022/08/27 04:50:59;;;;;;;;;;;17.10;99.90;;;;;;5096555;28;19908;-67
2022/08/27 04:53:25;;;;;;;;;;;17.10;99.90;;;;;;5078130;28;19916;-67
2022/08/27 04:55:52;;;;;;;;;;;17.10;99.90;;;;;;5096237;28;20388;-68
2022/08/27 04:58:19;;;;;;;;;;;17.10;99.90;;;;;;5096228;28;19912;-67
2022/08/27 05:00:47;;;;;;;;;;;17.20;99.90;;;;;;5096425;28;19916;-67
2022/08/27 05:03:14;;;;;;;;;;;17.10;99.90;;;;;;5096386;28;20297;-67
2022/08/27 05:05:39;;;;;;;;;;;17.10;99.90;;;;;;5096329;28;19916;-68
2022/08/27 05:08:05;;;;;;;;;;;17.10;99.90;;;;;;5096237;28;19912;-67
2022/08/27 05:10:37;;;;;;;;;;;17.10;99.90;;;;;;5095927;28;19957;-67
2022/08/27 05:13:02;;;;;;;;;;;17.10;99.90;;;;;;5095945;28;20290;-67
2022/08/27 05:15:30;;;;;;;;;;;17.10;99.90;;;;;;5095920;28;19908;-68
2022/08/27 05:17:59;;;;;;;;;;;17.10;99.90;;;;;;5095507;28;20405;-68
2022/08/27 05:20:26;;;;;;;;;;;17.20;99.90;;;;;;5096076;28;20003;-67
2022/08/27 05:22:52;;;;;;;;;;;17.20;99.90;;;;;;5095818;28;19908;-67
2022/08/27 05:25:17;;;;;;;;;;;17.30;99.90;;;;;;5095725;28;19953;-67
2022/08/27 05:27:42;;;;;;;;;;;17.40;99.90;;;;;;5095700;28;20018;-67
2022/08/27 05:30:08;;;;;;;;;;;17.40;99.90;;;;;;5095855;28;19908;-67
2022/08/27 05:32:34;;;;;;;;;;;17.40;99.90;;;;;;5095553;28;20401;-67
2022/08/27 05:34:59;;;;;;;;;;;17.40;99.90;;;;;;5095765;28;20423;-67
2022/08/27 05:37:25;;;;;;;;;;;17.40;99.90;;;;;;5095437;28;20015;-67
2022/08/27 05:39:51;;;;;;;;;;;17.50;99.90;;;;;;5095690;28;19916;-68
2022/08/27 05:42:18;;;;;;;;;;;17.50;99.90;;;;;;5077366;28;19962;-67
2022/08/27 05:44:43;;;;;;;;;;;17.50;99.90;;;;;;5095399;28;19908;-67
2022/08/27 05:47:09;;;;;;;;;;;17.60;99.90;;;;;;5095272;28;19957;-68
2022/08/27 05:49:34;;;;;;;;;;;17.60;99.90;;;;;;5095202;28;19920;-67
2022/08/27 05:52:00;;;;;;;;;;;17.60;99.90;;;;;;5095454;28;20393;-67
2022/08/27 05:54:25;;;;;;;;;;;17.70;99.90;;;;;;5095383;28;19908;-68
2022/08/27 05:56:51;;;;;;;;;;;17.70;99.90;;;;;;5094990;28;19912;-67
2022/08/27 06:02:04;;;;;;;;;;;17.70;99.90;;;;;;5094826;28;19987;-67
2022/08/27 06:04:30;;;;;;;;;;;17.80;99.90;;;;;;5095190;28;19958;-67
2022/08/27 06:06:55;;;;;;;;;;;17.80;99.90;;;;;;5094871;28;19908;-67
2022/08/27 06:09:23;;;;;;;;;;;17.90;99.90;;;;;;5094839;28;19915;-67
2022/08/27 06:11:48;;;;;;;;;;;17.90;99.90;;;;;;5095070;28;20358;-67
2022/08/27 06:14:14;;;;;;;;;;;18.00;99.90;;;;;;5095073;28;19919;-67
2022/08/27 06:16:40;;;;;;;;;;;18.00;99.90;;;;;;5094430;28;19920;-67
2022/08/27 06:19:06;;;;;;;;;;;18.00;99.90;;;;;;5094916;28;19916;-67
2022/08/27 06:21:32;;;;;;;;;;;18.10;99.90;;;;;;5093893;28;19908;-67
2022/08/27 06:23:58;;;;;;;;;;;18.10;99.90;;;;;;5094803;28;19965;-67
2022/08/27 06:26:24;;;;;;;;;;;18.10;99.90;;;;;;5094583;28;19952;-67
2022/08/27 06:28:50;;;;;;;;;;;18.20;99.90;;;;;;5094706;28;19908;-68
2022/08/27 06:31:17;;;;;;;;;;;18.30;99.90;;;;;;5094718;28;19909;-67
2022/08/27 06:33:43;;;;;;;;;;;18.40;99.90;;;;;;5094670;28;19955;-67
2022/08/27 06:36:09;;;;;;;;;;;18.40;99.90;;;;;;5094323;28;19908;-67
2022/08/27 06:38:35;;;;;;;;;;;18.40;99.90;;;;;;5094196;28;19939;-68
2022/08/27 06:41:02;;;;;;;;;;;18.30;99.90;;;;;;5094551;28;19908;-67
2022/08/27 06:43:28;;;;;;;;;;;18.40;99.90;;;;;;5094202;28;19994;-68
2022/08/27 06:45:53;;;;;;;;;;;18.40;99.90;;;;;;5076098;28;19989;-69
2022/08/27 06:48:19;;;;;;;;;;;18.40;99.90;;;;;;5094393;28;20006;-68
2022/08/27 06:50:45;;;;;;;;;;;18.40;99.90;;;;;;5094162;28;19918;-67
2022/08/27 06:53:11;;;;;;;;;;;18.40;99.90;;;;;;5094057;28;20348;-67
2022/08/27 06:55:44;;;;;;;;;;;18.50;99.90;;;;;;5094271;28;20024;-67
2022/08/27 06:58:10;;;;;;;;;;;18.50;99.90;;;;;;5093933;28;20378;-67
2022/08/27 07:00:35;;;;;;;;;;;18.60;99.90;;;;;;5093981;28;19908;-67
2022/08/27 07:03:03;;;;;;;;;;;18.60;99.90;;;;;;5093958;28;19909;-67
2022/08/27 07:05:30;;;;;;;;;;;18.80;99.90;;;;;;5093918;28;20367;-67
2022/08/27 07:07:56;;;;;;;;;;;18.90;99.90;;;;;;5094143;28;20377;-67
2022/08/27 07:10:22;;;;;;;;;;;18.90;99.90;;;;;;5093886;28;19908;-67
2022/08/27 07:12:47;;;;;;;;;;;19.00;99.90;;;;;;5094078;28;19915;-67
2022/08/27 07:15:13;;;;;;;;;;;19.10;99.90;;;;;;5094060;28;19931;-67
2022/08/27 07:17:39;;;;;;;;;;;19.20;99.90;;;;;;5093571;28;19920;-67
2022/08/27 07:20:05;;;;;;;;;;;19.20;99.90;;;;;;5093972;28;19912;-68
2022/08/27 07:22:31;;;;;;;;;;;19.30;99.90;;;;;;5093691;28;19915;-67
2022/08/27 07:24:56;;;;;;;;;;;19.20;99.90;;;;;;5093926;28;19916;-68
2022/08/27 07:27:22;;;;;;;;;;;19.30;99.90;;;;;;5093666;28;19915;-67
2022/08/27 07:29:47;;;;;;;;;;;19.50;99.90;;;;;;5093970;28;20324;-67
2022/08/27 07:32:13;;;;;;;;;;;19.60;99.90;;;;;;5093643;28;19909;-67
2022/08/27 07:34:38;;;;;;;;;;;19.60;99.90;;;;;;5097338;28;19908;-67
2022/08/27 07:37:04;;;;;;;;;;;19.60;99.90;;;;;;5097988;28;20010;-67
2022/08/27 07:39:29;;;;;;;;;;;19.70;99.90;;;;;;5098013;28;19912;-67
2022/08/27 07:44:41;;;;;;;;;;;19.60;99.90;;;;;;5097461;28;20413;-67
2022/08/27 07:47:06;;;;;;;;;;;19.70;99.90;;;;;;5097620;28;19908;-68
2022/08/27 07:49:34;;;;;;;;;;;19.70;99.90;;;;;;5097506;28;19912;-67
2022/08/27 07:52:00;;;;;;;;;;;19.80;99.90;;;;;;5097762;28;19931;-67
2022/08/27 07:54:25;;;;;;;;;;;20.00;99.90;;;;;;5097441;28;19913;-68
2022/08/27 07:56:51;;;;;;;;;;;20.00;99.90;;;;;;5097296;28;19916;-67
2022/08/27 07:59:16;;;;;;;;;;;20.00;99.90;;;;;;5079293;28;19908;-67
2022/08/27 08:01:42;;;;;;;;;;;20.10;99.90;;;;;;5097290;28;20282;-67
2022/08/27 08:04:08;;;;;;;;;;;20.10;99.90;;;;;;5097530;28;19908;-67
2022/08/27 08:06:35;;;;;;;;;;;20.20;99.90;;;;;;5097477;28;19961;-68
2022/08/27 08:09:01;;;;;;;;;;;20.30;99.90;;;;;;5097385;28;19944;-68
2022/08/27 08:11:27;;;;;;;;;;;20.20;99.90;;;;;;5097382;28;19967;-67
2022/08/27 08:13:52;;;;;;;;;;;19.90;99.90;;;;;;5097341;28;19915;-68
2022/08/27 08:16:18;;;;;;;;;;;20.10;99.90;;;;;;5096831;28;19969;-67
2022/08/27 08:18:43;;;;;;;;;;;20.10;99.90;;;;;;5097176;28;19912;-68
2022/08/27 08:21:10;;;;;;;;;;;20.20;99.90;;;;;;5096940;28;19908;-67
2022/08/27 08:23:37;;;;;;;;;;;20.30;99.90;;;;;;5097187;28;20267;-68
2022/08/27 08:26:03;;;;;;;;;;;20.50;99.90;;;;;;5096857;28;20055;-67
2022/08/27 08:28:29;;;;;;;;;;;20.40;99.90;;;;;;5078811;28;19909;-67
2022/08/27 08:30:55;;;;;;;;;;;20.30;99.90;;;;;;5096810;28;19962;-67
2022/08/27 08:33:21;;;;;;;;;;;20.20;99.90;;;;;;5097014;28;19908;-68
2022/08/27 08:35:48;;;;;;;;;;;20.30;99.90;;;;;;5096945;28;20434;-68
2022/08/27 08:38:14;;;;;;;;;;;20.30;99.90;;;;;;5096828;28;19916;-68
2022/08/27 08:40:42;;;;;;;;;;;20.30;99.90;;;;;;5096891;28;20373;-67
2022/08/27 08:43:11;;;;;;;;;;;20.20;99.90;;;;;;5078358;28;19916;-67
2022/08/27 08:45:39;;;;;;;;;;;20.20;99.90;;;;;;5096050;28;19908;-67
2022/08/27 08:48:10;;;;;;;;;;;20.30;99.90;;;;;;5096419;28;19912;-68
2022/08/27 08:50:58;;;;;;;;;;;20.50;99.90;;;;;;5096753;28;19909;-68
2022/08/27 08:53:32;;;;;;;;;;;20.60;99.90;;;;;;5096368;28;20306;-66
2022/08/27 08:56:00;;;;;;;;;;;20.50;99.90;;;;;;5096295;28;20409;-67
2022/08/27 08:58:44;;;;;;;;;;;20.60;99.90;;;;;;5096261;28;19951;-67
2022/08/27 09:01:12;;;;;;;;;;;20.70;99.90;;;;;;5096210;28;19916;-67
2022/08/27 09:03:40;;;;;;;;;;;20.90;99.90;;;;;;5096398;28;19957;-67
2022/08/27 09:06:08;;;;;;;;;;;20.80;99.90;;;;;;5096322;28;19915;-66
2022/08/27 09:08:35;;;;;;;;;;;20.80;99.90;;;;;;5096322;28;19915;-66
2022/08/27 09:11:06;;;;;;;;;;;20.70;99.90;;;;;;5096280;28;20361;-66
2022/08/27 09:13:48;;;;;;;;;;;20.70;99.90;;;;;;5096213;28;19915;-66
2022/08/27 09:16:14;;;;;;;;;;;20.60;99.90;;;;;;5095728;28;19914;-66
2022/08/27 09:18:40;;;;;;;;;;;20.80;99.90;;;;;;5096038;28;20007;-67
2022/08/27 09:21:19;;;;;;;;;;;20.90;99.90;;;;;;5096051;28;19995;-67
2022/08/27 09:24:04;;;;;;;;;;;20.80;99.90;;;;;;5096080;28;20351;-68
2022/08/27 09:26:31;;;;;;;;;;;20.70;99.90;;;;;;5095676;28;20370;-67
2022/08/27 09:29:29;;;;;;;;;;;20.70;99.90;;;;;;5095888;28;19908;-67
2022/08/27 09:31:45;;;;;;;;;;;20.70;99.90;;;;;;5080303;28;19916;-66
2022/08/27 09:34:11;;;;;;;;;;;20.60;99.90;;;;;;5095937;28;19908;-64
2022/08/27 09:36:58;;;;;;;;;;;20.70;99.90;;;;;;5095693;28;19908;-67
2022/08/27 09:39:26;;;;;;;;;;;20.70;99.90;;;;;;5077336;28;19914;-67
2022/08/27 09:41:52;;;;;;;;;;;20.90;99.90;;;;;;5095426;28;19951;-69
2022/08/27 09:44:18;;;;;;;;;;;21.00;99.90;;;;;;5095641;28;19908;-67
2022/08/27 09:47:01;;;;;;;;;;;21.20;99.90;;;;;;5095576;28;19908;-67
2022/08/27 09:49:26;;;;;;;;;;;21.10;99.90;;;;;;5095480;28;19909;-67
2022/08/27 09:51:53;;;;;;;;;;;20.90;99.90;;;;;;5095479;28;19915;-67
2022/08/27 09:54:30;;;;;;;;;;;20.50;99.90;;;;;;5095147;28;19947;-67
2022/08/27 09:56:57;;;;;;;;;;;20.40;99.90;;;;;;5094242;28;19912;-67
2022/08/27 09:59:26;;;;;;;;;;;20.00;99.90;;;;;;5095326;28;19908;-67
2022/08/27 10:01:54;;;;;;;;;;;20.00;99.90;;;;;;5095290;28;20274;-67
2022/08/27 10:04:24;;;;;;;;;;;19.90;99.90;;;;;;5095204;28;19915;-67
2022/08/27 10:06:50;;;;;;;;;;;19.90;99.90;;;;;;5095144;28;20002;-67
2022/08/27 10:09:18;;;;;;;;;;;19.90;99.90;;;;;;5095100;28;19963;-67
2022/08/27 10:11:51;;;;;;;;;;;19.80;99.90;;;;;;5095075;28;20328;-67
2022/08/27 10:14:20;;;;;;;;;;;19.90;99.90;;;;;;5094776;28;19952;-67
2022/08/27 10:16:59;;;;;;;;;;;19.90;99.90;;;;;;5094461;28;20310;-67
2022/08/27 10:19:44;;;;;;;;;;;20.00;99.90;;;;;;5094936;28;20039;-67
2022/08/27 10:22:16;;;;;;;;;;;20.10;99.90;;;;;;5094470;28;19908;-67
2022/08/27 10:25:02;;;;;;;;;;;20.20;99.90;;;;;;5094527;28;19956;-67
2022/08/27 10:27:34;;;;;;;;;;;20.20;99.90;;;;;;5094451;28;19973;-67
2022/08/27 10:30:09;;;;;;;;;;;20.20;99.90;;;;;;5094428;28;19908;-67
2022/08/27 10:35:23;;;;;;;;;;;20.20;99.90;;;;;;5071122;28;19935;-63
2022/08/27 10:38:00;;;;;;;;;;;20.50;99.90;;;;;;5070907;28;19913;-63
2022/08/27 10:40:30;;;;;;;;;;;20.60;99.90;;;;;;5070824;28;20367;-64
2022/08/27 10:43:15;;;;;;;;;;;20.80;99.90;;;;;;5071041;28;20290;-64
2022/08/27 10:46:02;;;;;;;;;;;20.80;99.90;;;;;;5070740;28;19908;-63
2022/08/27 10:48:47;;;;;;;;;;;20.70;99.90;;;;;;5070550;28;19962;-64
2022/08/27 10:51:16;;;;;;;;;;;20.80;99.90;;;;;;5070907;28;20278;-63
2022/08/27 10:53:48;;;;;;;;;;;20.90;99.90;;;;;;5070807;28;20424;-64
2022/08/27 10:56:27;;;;;;;;;;;20.90;99.90;;;;;;5070814;28;19909;-64
2022/08/27 10:59:13;;;;;;;;;;;21.10;99.90;;;;;;5070554;28;19909;-63
2022/08/27 11:01:48;;;;;;;;;;;20.90;99.90;;;;;;5070326;28;20063;-64
2022/08/27 11:04:20;;;;;;;;;;;20.90;99.90;;;;;;5070457;28;19909;-63
2022/08/27 11:06:51;;;;;;;;;;;21.00;99.90;;;;;;5070591;28;19909;-63
2022/08/27 11:09:20;;;;;;;;;;;21.00;99.90;;;;;;5070574;28;19913;-64
2022/08/27 11:11:48;;;;;;;;;;;21.10;99.90;;;;;;5070174;28;19995;-63
2022/08/27 11:14:20;;;;;;;;;;;21.20;99.90;;;;;;5070376;28;19942;-63
2022/08/27 11:16:48;;;;;;;;;;;21.30;99.90;;;;;;5070156;28;20011;-64
2022/08/27 11:19:17;;;;;;;;;;;21.50;99.90;;;;;;5070356;28;20383;-64
2022/08/27 11:21:59;;;;;;;;;;;21.60;99.90;;;;;;5068824;28;19916;-63
2022/08/27 11:24:27;;;;;;;;;;;21.40;99.90;;;;;;5070003;28;19967;-64
2022/08/27 11:26:56;;;;;;;;;;;21.60;99.90;;;;;;5070142;28;19908;-63
2022/08/27 11:29:41;;;;;;;;;;;21.60;99.90;;;;;;5069986;28;19956;-63
2022/08/27 11:32:24;;;;;;;;;;;21.60;99.90;;;;;;5069787;28;19909;-64
2022/08/27 11:34:54;;;;;;;;;;;21.40;99.90;;;;;;5087043;28;20302;-63
2022/08/27 11:37:26;;;;;;;;;;;21.30;99.90;;;;;;5090004;28;19957;-63
2022/08/27 11:40:08;;;;;;;;;;;21.30;99.90;;;;;;5089912;28;19916;-64
2022/08/27 11:42:36;;;;;;;;;;;21.10;99.90;;;;;;5071716;28;19909;-63
2022/08/27 11:45:06;;;;;;;;;;;21.10;99.90;;;;;;5085170;28;20282;-64
2022/08/27 11:47:32;;;;;;;;;;;21.00;99.90;;;;;;5076491;28;20337;-63
2022/08/27 11:50:00;;;;;;;;;;;20.90;99.90;;;;;;5076500;28;19956;-64
2022/08/27 11:52:30;;;;;;;;;;;21.10;99.90;;;;;;5076476;28;19909;-64
2022/08/27 11:55:09;;;;;;;;;;;21.20;99.90;;;;;;5076078;28;19912;-64
2022/08/27 11:57:36;;;;;;;;;;;21.10;99.90;;;;;;5076414;28;19940;-64
2022/08/27 12:00:22;;;;;;;;;;;21.00;99.90;;;;;;5076318;28;19920;-64
2022/08/27 12:03:08;;;;;;;;;;;21.20;99.90;;;;;;5075953;28;19952;-64
2022/08/27 12:05:39;;;;;;;;;;;21.40;99.90;;;;;;5075900;28;20359;-64
2022/08/27 12:08:23;;;;;;;;;;;21.30;99.90;;;;;;5076226;28;19992;-64
2022/08/27 12:11:08;;;;;;;;;;;21.40;99.90;;;;;;5076163;28;20355;-64
2022/08/27 12:13:41;;;;;;;;;;;21.50;99.90;;;;;;5075589;28;20371;-64
2022/08/27 12:16:26;;;;;;;;;;;21.60;99.90;;;;;;5075823;28;20037;-64
2022/08/27 12:18:56;;;;;;;;;;;21.50;99.90;;;;;;5075982;28;19917;-64
2022/08/27 12:21:34;;;;;;;;;;;21.40;99.90;;;;;;5075922;28;19987;-64
2022/08/27 12:24:19;;;;;;;;;;;21.30;99.90;;;;;;5075689;28;20271;-64
2022/08/27 12:27:04;;;;;;;;;;;21.50;99.90;;;;;;5075475;28;20333;-64
2022/08/27 12:29:37;;;;;;;;;;;21.60;99.90;;;;;;5075533;28;20294;-64
2022/08/27 12:32:09;;;;;;;;;;;21.60;99.90;;;;;;5075464;28;19912;-64
2022/08/27 12:34:42;;;;;;;;;;;21.60;99.90;;;;;;5075200;28;19920;-64
2022/08/27 12:37:08;;;;;;;;;;;21.80;99.90;;;;;;5075678;28;20386;-64
2022/08/27 12:39:35;;;;;;;;;;;21.90;99.90;;;;;;5075484;28;20024;-64
2022/08/27 12:42:01;;;;;;;;;;;22.00;99.90;;;;;;5075329;28;19909;-64
2022/08/27 12:44:28;;;;;;;;;;;22.10;99.90;;;;;;5075563;28;19909;-65
2022/08/27 12:46:57;;;;;;;;;;;22.20;99.90;;;;;;5075313;28;20009;-64
2022/08/27 12:49:26;;;;;;;;;;;22.30;99.90;;;;;;5075343;28;19943;-63
2022/08/27 12:51:53;;;;;;;;;;;22.10;99.90;;;;;;5075341;28;19908;-63
2022/08/27 12:54:28;;;;;;;;;;;21.90;99.90;;;;;;5075220;28;19920;-63
2022/08/27 12:59:41;;;;;;;;;;;22.20;99.90;;;;;;5091291;27;19919;-64
2022/08/27 13:02:27;;;;;;;;;;;22.20;99.90;;;;;;5091451;28;20434;-64
2022/08/27 13:04:52;;;;;;;;;;;22.30;99.90;;;;;;5091130;28;20362;-64
2022/08/27 13:07:38;;;;;;;;;;;22.50;99.90;;;;;;5090983;28;19908;-64
2022/08/27 13:12:59;;;;;;;;;;;22.50;99.90;;;;;;5091330;27;19918;-64
2022/08/27 13:15:25;;;;;;;;;;;22.50;99.90;;;;;;5124033;28;19962;-64
2022/08/27 13:17:51;;;;;;;;;;;22.50;99.90;;;;;;5091364;28;19913;-64
2022/08/27 13:20:21;;;;;;;;;;;22.60;99.90;;;;;;5089803;28;19954;-64
2022/08/27 13:22:47;;;;;;;;;;;22.60;99.90;;;;;;5090941;28;19908;-64
2022/08/27 13:25:30;;;;;;;;;;;22.20;99.90;;;;;;5124166;28;19951;-64
2022/08/27 13:27:58;;;;;;;;;;;21.80;99.90;;;;;;5090886;28;19912;-64
2022/08/27 13:30:26;;;;;;;;;;;21.90;99.90;;;;;;5091018;28;19988;-64
2022/08/27 13:32:52;;;;;;;;;;;21.80;99.90;;;;;;5090367;28;19919;-64
2022/08/27 13:35:19;;;;;;;;;;;21.80;99.90;;;;;;5091038;28;19991;-64
2022/08/27 13:37:46;;;;;;;;;;;21.90;99.90;;;;;;5089467;28;20378;-64
2022/08/27 13:40:30;;;;;;;;;;;22.10;99.90;;;;;;5090933;28;19908;-64
2022/08/27 13:43:01;;;;;;;;;;;22.20;99.90;;;;;;5090878;28;19916;-66
2022/08/27 13:45:26;;;;;;;;;;;22.30;99.90;;;;;;5090565;28;19915;-64
2022/08/27 13:47:52;;;;;;;;;;;22.10;99.90;;;;;;5090735;28;19909;-64
2022/08/27 13:50:20;;;;;;;;;;;22.20;99.90;;;;;;5090473;28;20375;-64
2022/08/27 13:55:31;;;;;;;;;;;22.20;99.90;;;;;;5090241;28;19912;-64
2022/08/27 13:57:56;;;;;;;;;;;22.10;99.90;;;;;;5090357;28;20251;-64
2022/08/27 14:03:01;;;;;;;;;;;22.20;99.90;;;;;;5071095;28;19913;-64
2022/08/27 14:05:29;;;;;;;;;;;22.20;99.90;;;;;;5071189;28;19995;-64
2022/08/27 14:07:58;;;;;;;;;;;22.00;99.90;;;;;;5071192;28;19909;-64
2022/08/27 14:10:28;;;;;;;;;;;22.20;99.90;;;;;;5071144;28;19912;-64
2022/08/27 14:12:55;;;;;;;;;;;22.30;99.90;;;;;;5071066;28;19909;-64
2022/08/27 14:15:26;;;;;;;;;;;22.50;99.90;;;;;;5071015;28;19909;-64
2022/08/27 14:17:52;;;;;;;;;;;22.50;99.90;;;;;;5070998;28;20350;-63
2022/08/27 14:20:18;;;;;;;;;;;22.70;99.90;;;;;;5070586;28;19960;-64
2022/08/27 14:22:47;;;;;;;;;;;22.70;99.90;;;;;;5070574;28;19927;-63
2022/08/27 14:25:13;;;;;;;;;;;22.60;99.90;;;;;;5069364;28;19923;-64
2022/08/27 14:27:39;;;;;;;;;;;22.70;99.90;;;;;;5070520;28;19909;-64
2022/08/27 14:30:08;;;;;;;;;;;22.90;99.90;;;;;;5070692;28;19916;-64
2022/08/27 14:32:34;;;;;;;;;;;22.90;99.90;;;;;;5085965;28;19908;-63
2022/08/27 14:34:59;;;;;;;;;;;22.90;99.90;;;;;;5070394;28;20051;-65
2022/08/27 14:37:25;;;;;;;;;;;22.90;99.90;;;;;;5069125;28;19909;-63
2022/08/27 14:39:50;;;;;;;;;;;22.90;99.90;;;;;;5070497;28;19908;-63
2022/08/27 14:42:16;;;;;;;;;;;22.90;99.90;;;;;;5070141;28;19920;-63